Time;durP1;ratioP1;P1;durP2;ratioP2;P2;SDS_P1;SDS_P2;PMS_P1;PMS_P2;Temp;Humidity;BMP_temperature;BMP_pressure;BME280_temperature;BME280_humidity;BME280_pressure;Samples;Min_cycle;Max_cycle;Signal;HPM_P1;HPM_P2
2022/03/22 00:02:01;;;;;;;27.33;21.13;;;7.20;99.90;;;;;;4983722;28;20605;-76
2022/03/22 00:04:29;;;;;;;25.83;19.80;;;7.10;99.90;;;;;;4970383;28;20232;-77
2022/03/22 00:06:56;;;;;;;32.13;22.33;;;7.10;99.90;;;;;;4968187;28;20273;-77
2022/03/22 00:09:23;;;;;;;28.17;19.70;;;7.00;99.90;;;;;;4968734;28;20226;-77
2022/03/22 00:11:50;;;;;;;28.00;19.77;;;7.00;99.90;;;;;;4969935;28;20205;-76
2022/03/22 00:14:17;;;;;;;29.93;20.83;;;7.00;99.90;;;;;;4969756;28;20242;-76
2022/03/22 00:16:44;;;;;;;31.67;21.67;;;7.00;99.90;;;;;;4970609;28;20211;-78
2022/03/22 00:19:11;;;;;;;29.47;21.23;;;6.90;99.90;;;;;;4971080;28;20224;-76
2022/03/22 00:21:39;;;;;;;30.93;21.97;;;6.90;99.90;;;;;;4971158;28;20208;-76
2022/03/22 00:24:06;;;;;;;30.80;21.70;;;6.90;99.90;;;;;;4968927;28;20235;-77
2022/03/22 00:26:33;;;;;;;29.57;20.53;;;6.90;99.90;;;;;;4969517;28;20209;-75
2022/03/22 00:29:00;;;;;;;29.13;20.20;;;6.90;99.90;;;;;;4968807;28;20233;-76
2022/03/22 00:31:27;;;;;;;34.00;24.70;;;6.80;99.90;;;;;;4968133;28;20207;-76
2022/03/22 00:33:53;;;;;;;32.67;22.50;;;6.80;99.90;;;;;;4968962;28;20208;-76
2022/03/22 00:36:20;;;;;;;34.87;23.73;;;6.80;99.90;;;;;;4983362;28;20220;-76
2022/03/22 00:38:48;;;;;;;31.33;22.10;;;6.80;99.90;;;;;;4973546;28;20575;-76
2022/03/22 00:41:16;;;;;;;32.27;22.83;;;6.80;99.90;;;;;;4987930;28;20215;-76
2022/03/22 00:43:44;;;;;;;35.47;24.60;;;6.80;99.90;;;;;;4976920;28;20578;-75
2022/03/22 00:46:11;;;;;;;34.00;23.73;;;6.80;99.90;;;;;;4968135;28;20259;-75
2022/03/22 00:48:38;;;;;;;37.27;24.57;;;6.80;99.90;;;;;;5001355;28;20234;-74
2022/03/22 00:51:05;;;;;;;32.53;23.40;;;6.80;99.90;;;;;;5000064;28;20209;-75
2022/03/22 00:53:32;;;;;;;31.07;23.27;;;6.90;99.90;;;;;;4968382;28;20310;-75
2022/03/22 00:56:01;;;;;;;32.77;23.53;;;6.90;99.90;;;;;;4968300;28;20223;-76
2022/03/22 00:58:28;;;;;;;34.63;24.93;;;6.90;99.90;;;;;;4967727;28;20207;-75
2022/03/22 01:00:55;;;;;;;32.57;23.47;;;6.80;99.90;;;;;;4968344;28;20200;-76
2022/03/22 01:03:22;;;;;;;31.13;22.63;;;6.80;99.90;;;;;;4967578;28;20204;-77
2022/03/22 01:05:52;;;;;;;29.67;21.70;;;6.80;99.90;;;;;;4967996;28;20235;-76
2022/03/22 01:08:19;;;;;;;31.87;21.60;;;6.80;99.90;;;;;;4968227;28;20224;-76
2022/03/22 01:10:52;;;;;;;30.37;22.43;;;6.80;99.90;;;;;;4968172;28;20215;-77
2022/03/22 01:13:20;;;;;;;33.13;22.57;;;6.80;99.90;;;;;;4967731;28;20307;-77
2022/03/22 01:15:49;;;;;;;31.30;22.33;;;6.80;99.90;;;;;;4967948;28;20197;-76
2022/03/22 01:18:16;;;;;;;30.03;20.73;;;6.70;99.90;;;;;;4967301;28;20212;-77
2022/03/22 01:20:46;;;;;;;31.90;23.20;;;6.70;99.90;;;;;;4968047;28;20215;-77
2022/03/22 01:23:13;;;;;;;30.17;21.30;;;6.70;99.90;;;;;;4968595;28;20216;-77
2022/03/22 01:25:43;;;;;;;30.70;21.13;;;6.70;99.90;;;;;;4968040;28;20228;-76
2022/03/22 01:28:12;;;;;;;30.87;21.77;;;6.70;99.90;;;;;;4984282;28;20444;-77
2022/03/22 01:30:40;;;;;;;29.87;21.57;;;6.60;99.90;;;;;;4987412;28;20762;-76
2022/03/22 01:33:08;;;;;;;29.00;20.40;;;6.60;99.90;;;;;;4987518;28;20239;-76
2022/03/22 01:35:35;;;;;;;31.47;23.03;;;6.60;99.90;;;;;;4976419;28;20212;-76
2022/03/22 01:38:02;;;;;;;31.07;23.17;;;6.60;99.90;;;;;;4967766;28;20216;-77
2022/03/22 01:40:30;;;;;;;33.70;23.80;;;6.60;99.90;;;;;;4967487;28;20201;-76
2022/03/22 01:42:58;;;;;;;31.27;22.37;;;6.60;99.90;;;;;;4967375;28;20623;-77
2022/03/22 01:45:25;;;;;;;32.50;22.80;;;6.50;99.90;;;;;;4967664;28;20232;-77
2022/03/22 01:47:58;;;;;;;31.23;22.40;;;6.50;99.90;;;;;;4986645;28;20527;-77
2022/03/22 01:50:25;;;;;;;31.30;21.97;;;6.50;99.90;;;;;;4990568;28;20220;-75
2022/03/22 01:52:52;;;;;;;28.77;22.07;;;6.50;99.90;;;;;;4968035;28;20228;-76
2022/03/22 01:55:20;;;;;;;30.57;21.13;;;6.50;99.90;;;;;;4966515;28;20510;-75
2022/03/22 01:57:48;;;;;;;33.10;23.57;;;6.50;99.90;;;;;;4967829;28;20240;-76
2022/03/22 02:00:16;;;;;;;28.37;21.00;;;6.50;99.90;;;;;;4966976;28;20208;-76
2022/03/22 02:05:52;;;;;;;32.43;22.23;;;6.40;99.90;;;;;;4967171;28;20370;-77
2022/03/22 02:08:21;;;;;;;32.43;22.20;;;6.40;99.90;;;;;;4966672;28;20212;-76
2022/03/22 02:10:48;;;;;;;31.80;22.13;;;6.40;99.90;;;;;;4966802;28;20212;-77
2022/03/22 02:13:15;;;;;;;34.63;24.77;;;6.40;99.90;;;;;;4966823;28;20754;-78
2022/03/22 02:15:43;;;;;;;32.17;22.87;;;6.40;99.90;;;;;;4966715;28;20223;-76
2022/03/22 02:18:10;;;;;;;31.23;22.23;;;6.30;99.90;;;;;;4967033;28;20526;-77
2022/03/22 02:20:38;;;;;;;33.47;23.07;;;6.30;99.90;;;;;;4966738;28;20581;-76
2022/03/22 02:23:09;;;;;;;32.57;23.13;;;6.30;99.90;;;;;;4966915;28;20221;-76
2022/03/22 02:25:37;;;;;;;31.43;21.57;;;6.30;99.90;;;;;;4967016;28;20233;-78
2022/03/22 02:28:05;;;;;;;33.10;22.77;;;6.30;99.90;;;;;;4967037;28;20868;-75
2022/03/22 02:30:32;;;;;;;31.83;21.83;;;6.30;99.90;;;;;;4966164;28;20212;-76
2022/03/22 02:33:01;;;;;;;27.60;20.77;;;6.20;99.90;;;;;;4972507;28;20223;-76
2022/03/22 02:35:30;;;;;;;29.87;21.93;;;6.20;99.90;;;;;;4985444;28;20207;-77
2022/03/22 02:37:58;;;;;;;33.10;23.63;;;6.20;99.90;;;;;;4974459;28;20214;-75
2022/03/22 02:40:27;;;;;;;31.63;22.60;;;6.20;99.90;;;;;;4977602;28;20315;-76
2022/03/22 02:42:55;;;;;;;35.97;25.43;;;6.20;99.90;;;;;;4982539;28;20208;-75
2022/03/22 02:45:23;;;;;;;36.63;23.83;;;6.20;99.90;;;;;;4975006;28;20951;-75
2022/03/22 02:47:50;;;;;;;35.47;24.03;;;6.10;99.90;;;;;;4976443;28;20676;-76
2022/03/22 02:50:17;;;;;;;33.40;23.50;;;6.10;99.90;;;;;;4978028;28;20420;-77
2022/03/22 02:52:45;;;;;;;33.23;23.03;;;6.10;99.90;;;;;;4970080;28;20251;-76
2022/03/22 02:55:13;;;;;;;37.30;24.03;;;6.10;99.90;;;;;;4984026;28;20352;-76
2022/03/22 02:57:41;;;;;;;36.73;24.23;;;6.10;99.90;;;;;;4980309;28;20698;-75
2022/03/22 03:00:11;;;;;;;33.10;23.27;;;6.00;99.90;;;;;;4978133;28;20621;-76
2022/03/22 03:02:45;;;;;;;38.53;25.00;;;6.00;99.90;;;;;;4967822;28;20216;-76
2022/03/22 03:05:12;;;;;;;37.90;26.97;;;6.00;99.90;;;;;;4972039;28;20221;-76
2022/03/22 03:07:39;;;;;;;39.23;26.40;;;6.00;99.90;;;;;;4976279;28;20208;-76
2022/03/22 03:10:08;;;;;;;43.93;28.80;;;6.00;99.90;;;;;;4966668;28;20216;-76
2022/03/22 03:12:35;;;;;;;42.33;28.53;;;6.00;99.90;;;;;;4965269;28;20216;-77
2022/03/22 03:15:03;;;;;;;44.63;29.40;;;6.00;99.90;;;;;;4966088;28;20237;-75
2022/03/22 03:17:31;;;;;;;42.60;28.53;;;6.00;99.90;;;;;;4966017;28;20527;-76
2022/03/22 03:19:58;;;;;;;43.53;29.13;;;6.00;99.90;;;;;;4965491;28;20205;-76
2022/03/22 03:22:25;;;;;;;40.97;27.50;;;6.00;99.90;;;;;;4966111;28;20216;-76
2022/03/22 03:24:52;;;;;;;38.43;26.40;;;6.00;99.90;;;;;;4965709;28;20262;-76
2022/03/22 03:27:19;;;;;;;40.87;28.27;;;6.00;99.90;;;;;;4965052;28;20197;-76
2022/03/22 03:29:45;;;;;;;35.77;25.03;;;6.00;99.90;;;;;;4965501;28;20532;-75
2022/03/22 03:32:12;;;;;;;34.97;25.33;;;5.90;99.90;;;;;;4965764;28;20211;-76
2022/03/22 03:34:40;;;;;;;39.70;25.17;;;5.90;99.90;;;;;;4969746;28;20207;-76
2022/03/22 03:37:07;;;;;;;35.80;24.27;;;5.90;99.90;;;;;;4985051;28;20196;-76
2022/03/22 03:39:37;;;;;;;40.40;25.73;;;5.90;99.90;;;;;;4984271;28;20203;-76
2022/03/22 03:42:04;;;;;;;37.57;25.23;;;5.90;99.90;;;;;;4965717;28;20212;-76
2022/03/22 03:47:18;;;;;;;40.47;26.50;;;5.80;99.90;;;;;;4975083;28;20627;-76
2022/03/22 03:49:48;;;;;;;40.40;27.27;;;5.80;99.90;;;;;;4986291;28;20852;-75
2022/03/22 03:52:17;;;;;;;41.40;28.07;;;5.80;99.90;;;;;;4965787;28;20223;-76
2022/03/22 03:54:44;;;;;;;35.83;25.57;;;5.70;99.90;;;;;;4965107;28;20239;-76
2022/03/22 03:57:11;;;;;;;40.77;26.93;;;5.70;99.90;;;;;;4965819;28;20209;-76
2022/03/22 03:59:39;;;;;;;38.87;26.83;;;5.70;99.90;;;;;;4969115;28;20208;-77
2022/03/22 04:02:07;;;;;;;38.77;26.30;;;5.70;99.90;;;;;;4984392;28;20729;-76
2022/03/22 04:04:35;;;;;;;41.07;28.30;;;5.70;99.90;;;;;;4984917;28;20207;-75
2022/03/22 04:07:04;;;;;;;40.20;28.33;;;5.70;99.90;;;;;;4985375;28;20299;-76
2022/03/22 04:09:31;;;;;;;39.70;26.60;;;5.60;99.90;;;;;;4968234;28;20216;-76
2022/03/22 04:11:58;;;;;;;41.53;28.23;;;5.60;99.90;;;;;;4965991;28;20212;-76
2022/03/22 04:14:25;;;;;;;45.90;28.57;;;5.60;99.90;;;;;;4965602;28;20236;-76
2022/03/22 04:16:52;;;;;;;40.23;27.10;;;5.60;99.90;;;;;;4964568;28;20211;-76
2022/03/22 04:19:19;;;;;;;40.27;27.13;;;5.60;99.90;;;;;;4965425;28;20227;-76
2022/03/22 04:21:46;;;;;;;38.90;26.67;;;5.50;99.90;;;;;;4965501;28;20220;-76
2022/03/22 04:24:14;;;;;;;40.00;27.83;;;5.50;99.90;;;;;;4964752;28;20668;-76
2022/03/22 04:26:43;;;;;;;41.73;27.87;;;5.50;99.90;;;;;;4965709;28;20243;-76
2022/03/22 04:34:40;;;;;;;47.90;30.63;;;5.40;99.90;;;;;;4975140;28;20222;-77
2022/03/22 04:37:10;;;;;;;42.30;28.60;;;5.40;99.90;;;;;;4973013;28;20400;-76
2022/03/22 04:39:38;;;;;;;47.27;30.40;;;5.40;99.90;;;;;;4966915;28;20213;-77
2022/03/22 04:42:06;;;;;;;42.07;29.60;;;5.40;99.90;;;;;;4984731;28;20807;-76
2022/03/22 04:44:33;;;;;;;42.13;27.57;;;5.40;99.90;;;;;;4977345;28;20213;-77
2022/03/22 04:47:00;;;;;;;42.03;27.57;;;5.30;99.90;;;;;;4971314;28;20306;-76
2022/03/22 04:49:28;;;;;;;43.73;29.63;;;5.30;99.90;;;;;;4981474;28;20591;-76
2022/03/22 04:57:27;;;;;;;45.80;30.10;;;5.30;99.90;;;;;;4967773;28;20320;-76
2022/03/22 04:59:54;;;;;;;51.80;33.13;;;5.30;99.90;;;;;;4968638;28;20252;-76
2022/03/22 05:02:22;;;;;;;50.27;32.17;;;5.30;99.90;;;;;;4967921;28;20241;-76
2022/03/22 05:04:49;;;;;;;49.57;31.90;;;5.30;99.90;;;;;;4968132;28;20201;-76
2022/03/22 05:07:15;;;;;;;51.17;32.73;;;5.30;99.90;;;;;;4968376;28;20228;-75
2022/03/22 05:09:44;;;;;;;47.43;31.73;;;5.30;99.90;;;;;;4968403;28;20216;-76
2022/03/22 05:12:13;;;;;;;50.70;31.37;;;5.30;99.90;;;;;;4967930;28;20201;-76
2022/03/22 05:14:41;;;;;;;52.00;34.13;;;5.20;99.90;;;;;;4968923;28;20316;-75
2022/03/22 05:17:08;;;;;;;53.77;33.73;;;5.20;99.90;;;;;;4968446;28;20299;-75
2022/03/22 05:19:34;;;;;;;56.77;35.90;;;5.30;99.90;;;;;;4968201;28;20220;-77
2022/03/22 05:22:02;;;;;;;50.70;33.17;;;5.20;99.90;;;;;;4968237;28;20213;-76
2022/03/22 05:24:28;;;;;;;52.23;33.83;;;5.20;99.90;;;;;;4968003;28;20259;-75
2022/03/22 05:26:56;;;;;;;51.93;33.40;;;5.20;99.90;;;;;;4985486;28;20235;-76
2022/03/22 05:29:23;;;;;;;51.17;33.40;;;5.20;99.90;;;;;;4987110;28;20208;-76
2022/03/22 05:31:50;;;;;;;52.20;33.13;;;5.20;99.90;;;;;;4987294;28;20204;-77
2022/03/22 05:34:17;;;;;;;49.77;33.67;;;5.20;99.90;;;;;;4975468;28;20212;-76
2022/03/22 05:36:43;;;;;;;54.13;35.40;;;5.20;99.90;;;;;;4967886;28;20205;-76
2022/03/22 05:39:10;;;;;;;52.20;33.30;;;5.20;99.90;;;;;;4967212;28;20211;-75
2022/03/22 05:41:37;;;;;;;47.33;32.63;;;5.20;99.90;;;;;;4967861;28;20208;-77
2022/03/22 05:44:06;;;;;;;51.70;34.40;;;5.10;99.90;;;;;;4968168;28;20232;-75
2022/03/22 05:46:34;;;;;;;51.07;33.47;;;5.10;99.90;;;;;;4967459;28;20238;-75
2022/03/22 05:49:00;;;;;;;52.90;34.73;;;5.10;99.90;;;;;;4976009;28;20204;-76
2022/03/22 05:51:27;;;;;;;54.07;34.27;;;5.10;99.90;;;;;;4967773;28;20299;-76
2022/03/22 05:53:54;;;;;;;47.77;31.87;;;5.10;99.90;;;;;;4967223;28;20232;-76
2022/03/22 05:56:20;;;;;;;51.63;33.07;;;5.10;99.90;;;;;;4967593;28;20209;-76
2022/03/22 05:58:47;;;;;;;49.00;31.80;;;5.10;99.90;;;;;;4967188;28;20223;-76
2022/03/22 06:01:16;;;;;;;49.40;31.57;;;5.10;99.90;;;;;;4966396;28;20797;-76
2022/03/22 06:03:43;;;;;;;50.97;32.40;;;5.10;99.90;;;;;;4966254;28;20734;-76
2022/03/22 06:06:10;;;;;;;48.53;31.73;;;5.10;99.90;;;;;;4966892;28;20232;-76
2022/03/22 06:08:37;;;;;;;48.43;31.33;;;5.10;99.90;;;;;;4966985;28;20223;-76
2022/03/22 06:11:03;;;;;;;52.67;32.77;;;5.10;99.90;;;;;;4967820;28;20200;-76
2022/03/22 06:13:30;;;;;;;44.33;30.10;;;5.10;99.90;;;;;;4967491;28;20237;-76
2022/03/22 06:15:57;;;;;;;48.50;32.83;;;5.10;99.90;;;;;;4967045;28;20201;-75
2022/03/22 06:18:25;;;;;;;47.57;30.60;;;5.10;99.90;;;;;;4967687;28;20210;-76
2022/03/22 06:20:52;;;;;;;47.67;31.30;;;5.10;99.90;;;;;;4967505;28;20208;-76
2022/03/22 06:23:19;;;;;;;52.10;32.43;;;5.10;99.90;;;;;;4966366;28;20486;-77
2022/03/22 06:25:46;;;;;;;47.40;31.20;;;5.10;99.90;;;;;;4967283;28;20243;-76
2022/03/22 06:28:14;;;;;;;49.87;33.73;;;5.20;99.90;;;;;;4967243;28;20259;-76
2022/03/22 06:30:42;;;;;;;54.63;36.33;;;5.20;99.90;;;;;;4968757;28;20207;-75
2022/03/22 06:33:12;;;;;;;64.40;39.07;;;5.30;99.90;;;;;;4973231;28;20237;-76
2022/03/22 06:35:42;;;;;;;57.33;37.47;;;5.30;99.90;;;;;;4976859;28;20215;-75
2022/03/22 06:38:08;;;;;;;58.30;39.03;;;5.40;99.90;;;;;;4975827;28;20223;-75
2022/03/22 06:40:38;;;;;;;60.50;38.57;;;5.50;99.90;;;;;;4973651;28;20216;-78
2022/03/22 06:43:08;;;;;;;69.40;40.93;;;5.50;99.90;;;;;;4965692;28;20197;-76
2022/03/22 06:45:35;;;;;;;65.73;40.73;;;5.60;99.90;;;;;;4983435;28;20228;-76
2022/03/22 06:48:02;;;;;;;77.10;43.00;;;5.70;99.90;;;;;;4976536;28;20221;-76
2022/03/22 06:50:31;;;;;;;67.87;43.30;;;5.80;99.90;;;;;;4965747;28;20189;-77
2022/03/22 06:52:59;;;;;;;65.33;40.90;;;5.90;99.90;;;;;;4966310;28;20231;-76
2022/03/22 06:55:26;;;;;;;62.37;40.67;;;6.00;99.90;;;;;;4966115;28;20225;-77
2022/03/22 06:57:53;;;;;;;67.63;42.30;;;6.10;99.90;;;;;;4965479;28;20209;-75
2022/03/22 07:00:21;;;;;;;68.40;41.17;;;6.10;99.90;;;;;;4966211;28;20208;-76
2022/03/22 07:02:49;;;;;;;66.87;42.80;;;6.20;99.90;;;;;;4983143;28;20222;-77
2022/03/22 07:05:17;;;;;;;72.17;44.03;;;6.30;99.90;;;;;;4985153;28;20207;-77
2022/03/22 07:07:44;;;;;;;69.37;44.60;;;6.40;99.90;;;;;;4985427;28;20223;-77
2022/03/22 07:10:14;;;;;;;69.43;43.87;;;6.40;99.90;;;;;;4977360;28;20205;-77
2022/03/22 07:12:51;;;;;;;72.50;45.77;;;6.50;99.90;;;;;;4966054;28;20200;-77
2022/03/22 07:15:20;;;;;;;75.90;47.50;;;6.60;99.90;;;;;;4964984;28;20243;-77
2022/03/22 07:17:47;;;;;;;75.17;44.10;;;6.70;99.90;;;;;;4965463;28;20519;-74
2022/03/22 07:20:14;;;;;;;72.00;43.17;;;6.80;99.90;;;;;;4965779;28;20215;-75
2022/03/22 07:22:43;;;;;;;78.40;47.07;;;6.90;99.90;;;;;;4966570;28;20595;-76
2022/03/22 07:25:11;;;;;;;72.33;45.70;;;7.00;99.90;;;;;;4965160;28;20209;-75
2022/03/22 07:27:38;;;;;;;74.57;44.63;;;7.10;99.90;;;;;;4965668;28;20268;-75
2022/03/22 07:30:06;;;;;;;70.70;45.27;;;7.20;99.90;;;;;;4966008;28;20227;-76
2022/03/22 07:32:33;;;;;;;70.60;46.07;;;7.40;99.90;;;;;;4965068;28;20648;-76
2022/03/22 07:35:00;;;;;;;72.77;46.87;;;7.50;99.90;;;;;;4965303;28;20231;-75
2022/03/22 07:37:29;;;;;;;75.50;48.73;;;7.60;99.90;;;;;;4965360;28;20201;-76
2022/03/22 07:39:57;;;;;;;70.00;46.90;;;7.70;99.90;;;;;;4965526;28;20201;-76
2022/03/22 07:42:27;;;;;;;75.13;44.63;;;7.80;99.90;;;;;;4965136;28;20267;-76
2022/03/22 07:44:56;;;;;;;68.27;43.37;;;7.90;99.90;;;;;;4966112;28;20282;-76
2022/03/22 07:47:23;;;;;;;70.87;44.83;;;8.00;99.90;;;;;;4990663;28;20267;-75
2022/03/22 07:55:17;;;;;;;66.43;43.60;;;8.20;99.90;;;;;;4984832;28;20652;-75
2022/03/22 07:57:46;;;;;;;71.27;45.80;;;8.30;99.90;;;;;;4984785;28;20204;-77
2022/03/22 08:00:15;;;;;;;60.03;43.13;;;8.40;99.90;;;;;;4965516;28;20323;-76
2022/03/22 08:06:10;;;;;;;63.33;42.67;;;8.60;99.90;;;;;;4809947;29;20269;-77
2022/03/22 08:08:43;;;;;;;63.43;43.63;;;8.70;99.90;;;;;;4979943;28;20493;-76
2022/03/22 08:11:09;;;;;;;62.00;42.97;;;8.80;99.90;;;;;;4980811;28;20208;-77
2022/03/22 08:13:39;;;;;;;70.20;43.83;;;8.90;99.90;;;;;;4964684;28;20244;-75
2022/03/22 08:16:07;;;;;;;58.37;41.73;;;9.00;99.90;;;;;;4965354;28;20196;-77
2022/03/22 08:18:36;;;;;;;56.60;41.33;;;9.10;99.90;;;;;;4965453;28;20208;-76
2022/03/22 08:21:09;;;;;;;62.77;41.20;;;9.30;99.90;;;;;;4962222;28;20205;-77
2022/03/22 08:23:36;;;;;;;57.17;40.33;;;9.40;99.90;;;;;;4965371;28;20204;-76
2022/03/22 08:26:03;;;;;;;53.23;37.93;;;9.60;99.90;;;;;;4965545;28;20229;-76
2022/03/22 08:28:29;;;;;;;55.57;38.67;;;9.70;99.90;;;;;;4967313;28;20208;-76
2022/03/22 08:30:57;;;;;;;53.60;37.80;;;9.80;99.90;;;;;;4976244;28;20220;-76
2022/03/22 08:33:24;;;;;;;55.30;38.50;;;9.90;99.90;;;;;;4976061;28;20208;-76
2022/03/22 08:35:52;;;;;;;48.70;37.27;;;10.00;99.90;;;;;;4970528;28;20227;-75
2022/03/22 08:38:20;;;;;;;47.77;35.13;;;10.20;99.90;;;;;;4978911;28;20230;-76
2022/03/22 08:40:47;;;;;;;48.53;35.30;;;10.40;99.90;;;;;;4981689;28;20532;-75
2022/03/22 08:43:13;;;;;;;51.70;36.00;;;10.50;99.90;;;;;;4966905;28;20224;-75
2022/03/22 08:45:41;;;;;;;55.83;37.53;;;10.70;99.90;;;;;;4969334;28;20228;-76
2022/03/22 08:48:11;;;;;;;51.47;35.10;;;10.80;99.90;;;;;;4992881;28;20231;-75
2022/03/22 08:50:39;;;;;;;49.30;34.57;;;11.00;99.90;;;;;;5006565;28;20675;-75
2022/03/22 08:53:06;;;;;;;48.53;35.50;;;11.20;99.90;;;;;;5006084;28;20219;-75
2022/03/22 08:55:34;;;;;;;45.03;33.30;;;11.40;99.90;;;;;;4986927;28;20220;-76
2022/03/22 08:58:05;;;;;;;44.60;32.13;;;11.60;99.90;;;;;;4986957;28;20207;-77
2022/03/22 09:00:33;;;;;;;42.33;33.83;;;11.80;99.90;;;;;;4984860;28;20219;-77
2022/03/22 09:03:01;;;;;;;45.60;34.40;;;12.00;99.90;;;;;;4967584;28;20224;-77
2022/03/22 09:08:14;;;;;;;47.47;32.87;;;12.40;99.90;;;;;;4966802;28;20227;-77
2022/03/22 09:10:41;;;;;;;45.37;33.33;;;12.60;99.90;;;;;;4967712;28;20224;-77
2022/03/22 09:13:09;;;;;;;38.50;29.43;;;12.70;99.90;;;;;;4968445;28;20291;-77
2022/03/22 09:15:38;;;;;;;41.00;31.67;;;12.90;99.90;;;;;;4967544;28;20212;-77
2022/03/22 09:18:12;;;;;;;40.93;30.23;;;13.00;99.90;;;;;;4966868;28;20222;-76
2022/03/22 09:20:41;;;;;;;41.97;31.17;;;13.10;99.90;;;;;;4968305;28;20238;-77
2022/03/22 09:23:08;;;;;;;40.80;29.33;;;13.30;99.90;;;;;;4967863;28;20205;-76
2022/03/22 09:25:35;;;;;;;37.90;30.20;;;13.50;99.90;;;;;;4967397;28;20205;-76
2022/03/22 09:28:05;;;;;;;40.10;29.93;;;13.60;99.90;;;;;;4967492;28;20243;-77
2022/03/22 09:30:32;;;;;;;41.83;32.47;;;13.70;99.90;;;;;;4967583;28;20930;-75
2022/03/22 09:32:59;;;;;;;41.83;30.47;;;13.90;99.90;;;;;;4967221;28;20605;-76
2022/03/22 09:35:26;;;;;;;41.37;32.17;;;14.00;99.90;;;;;;4967361;28;20208;-75
2022/03/22 09:37:54;;;;;;;41.00;31.70;;;14.20;99.90;;;;;;4967883;28;20637;-75
2022/03/22 09:40:23;;;;;;;43.77;33.33;;;14.40;99.90;;;;;;4967173;28;20590;-75
2022/03/22 09:42:50;;;;;;;41.77;32.63;;;14.60;99.90;;;;;;4967158;28;20239;-76
2022/03/22 09:45:19;;;;;;;40.43;30.13;;;14.70;99.90;;;;;;4967711;28;20204;-75
2022/03/22 09:47:46;;;;;;;36.83;29.03;;;14.90;99.90;;;;;;4985166;28;20643;-75
2022/03/22 09:50:15;;;;;;;40.67;30.20;;;15.10;99.90;;;;;;5006517;28;20211;-76
2022/03/22 09:52:43;;;;;;;38.90;27.83;;;15.30;99.90;;;;;;4986222;28;20248;-76
2022/03/22 09:55:13;;;;;;;33.80;28.33;;;15.50;99.90;;;;;;4968095;28;20217;-76
2022/03/22 09:57:40;;;;;;;35.60;27.57;;;15.60;99.90;;;;;;4967270;28;20193;-77
2022/03/22 10:00:09;;;;;;;38.00;27.67;;;15.80;99.90;;;;;;4966747;28;20216;-77
2022/03/22 10:02:36;;;;;;;31.67;25.15;;;16.00;99.90;;;;;;4966941;28;20865;-77
2022/03/22 10:05:04;;;;;;;36.20;29.05;;;16.30;99.90;;;;;;4967041;28;20220;-77
2022/03/22 10:07:30;;;;;;;35.33;29.00;;;16.50;99.90;;;;;;4966487;28;20227;-77
2022/03/22 10:09:59;;;;;;;35.75;27.55;;;16.60;99.90;;;;;;4980214;28;20215;-76
2022/03/22 10:12:28;;;;;;;33.88;26.75;;;16.70;99.90;;;;;;4985840;28;20262;-78
2022/03/22 10:14:55;;;;;;;28.10;24.98;;;16.90;99.90;;;;;;4985128;28;20270;-77
2022/03/22 10:17:22;;;;;;;30.85;24.70;;;17.10;99.90;;;;;;4983805;28;20204;-78
2022/03/22 10:19:50;;;;;;;31.83;25.15;;;17.30;99.90;;;;;;4967119;28;20200;-76
2022/03/22 10:22:22;;;;;;;31.70;24.98;;;17.50;99.90;;;;;;4965845;28;20197;-77
2022/03/22 10:24:52;;;;;;;37.15;27.90;;;17.70;99.90;;;;;;4967696;28;20201;-75
2022/03/22 10:27:24;;;;;;;34.00;26.27;;;17.80;99.90;;;;;;4966408;28;20637;-77
2022/03/22 10:29:52;;;;;;;29.08;25.42;;;17.80;99.90;;;;;;4966069;28;20207;-76
2022/03/22 10:32:29;;;;;;;31.20;25.10;;;17.90;99.90;;;;;;4966332;28;20209;-77
2022/03/22 10:34:56;;;;;;;30.45;25.85;;;17.90;99.90;;;;;;4968352;28;20243;-77
2022/03/22 10:37:26;;;;;;;30.02;23.17;;;18.00;99.90;;;;;;4970233;28;20204;-76
2022/03/22 10:39:53;;;;;;;26.35;23.52;;;18.10;99.90;;;;;;4968897;28;20784;-77
2022/03/22 10:42:23;;;;;;;34.15;24.10;;;18.20;99.90;;;;;;4976941;28;20216;-76
2022/03/22 10:44:51;;;;;;;38.30;24.85;;;18.30;99.90;;;;;;4974236;28;20211;-77
2022/03/22 10:47:26;;;;;;;28.17;23.67;;;18.40;99.90;;;;;;4990401;28;20223;-77
2022/03/22 10:50:01;;;;;;;29.65;24.60;;;18.60;99.90;;;;;;4995804;28;20310;-77
2022/03/22 10:52:29;;;;;;;26.23;22.30;;;18.70;99.90;;;;;;4966502;28;20609;-77
2022/03/22 10:54:56;;;;;;;33.47;24.23;;;18.90;99.90;;;;;;4966245;28;20292;-76
2022/03/22 10:57:29;;;;;;;28.48;22.65;;;18.90;99.90;;;;;;4965720;28;20205;-77
2022/03/22 10:59:59;;;;;;;33.60;24.08;;;19.00;99.90;;;;;;4966394;28;20676;-76
2022/03/22 11:02:27;;;;;;;28.15;24.75;;;19.10;99.90;;;;;;4965586;28;20251;-76
2022/03/22 11:04:56;;;;;;;29.10;22.38;;;19.20;99.90;;;;;;4965635;28;20212;-76
2022/03/22 11:07:25;;;;;;;27.85;24.27;;;19.40;99.90;;;;;;4966413;28;20625;-76
2022/03/22 11:09:52;;;;;;;26.98;21.90;;;19.50;99.90;;;;;;4966061;28;20246;-75
2022/03/22 11:12:19;;;;;;;30.42;23.15;;;19.60;99.90;;;;;;4966314;28;20208;-76
2022/03/22 11:14:47;;;;;;;27.13;21.60;;;19.80;99.90;;;;;;4965835;28;20268;-76
2022/03/22 11:17:15;;;;;;;26.80;22.77;;;19.90;99.90;;;;;;4965524;28;20205;-76
2022/03/22 11:19:42;;;;;;;25.73;21.92;;;19.90;99.90;;;;;;4966618;28;20208;-76
2022/03/22 11:22:10;;;;;;;23.63;20.02;;;19.80;99.90;;;;;;4966152;28;20214;-77
2022/03/22 11:24:37;;;;;;;29.05;24.13;;;20.00;99.90;;;;;;4965127;28;20204;-77
2022/03/22 11:27:07;;;;;;;26.65;23.70;;;20.10;99.90;;;;;;4966026;28;20324;-76
2022/03/22 11:29:34;;;;;;;26.08;23.15;;;20.10;99.90;;;;;;4965247;28;20211;-78
2022/03/22 11:34:47;;;;;;;30.80;24.35;;;20.10;99.90;;;;;;4965920;28;20219;-77
2022/03/22 11:37:28;;;;;;;25.83;20.90;;;20.10;99.90;;;;;;4965527;28;20207;-76
2022/03/22 11:42:38;;;;;;;24.58;20.67;;;20.20;99.90;;;;;;4933408;28;20238;-77
2022/03/22 11:45:09;;;;;;;27.05;19.85;;;20.10;99.90;;;;;;4965339;28;20216;-78
2022/03/22 11:47:40;;;;;;;31.15;22.05;;;20.20;99.90;;;;;;4980981;28;20256;-78
2022/03/22 11:50:13;;;;;;;34.97;23.20;;;20.40;99.90;;;;;;4979171;28;20220;-76
2022/03/22 11:52:41;;;;;;;26.85;21.77;;;20.30;99.90;;;;;;4976826;28;20211;-76
2022/03/22 11:55:10;;;;;;;26.48;20.73;;;20.30;99.90;;;;;;5003158;28;20207;-77
2022/03/22 11:57:45;;;;;;;23.15;19.17;;;20.40;99.90;;;;;;5002183;28;20208;-77
2022/03/22 12:00:14;;;;;;;26.08;21.20;;;20.60;99.90;;;;;;4985081;28;20195;-77
2022/03/22 12:02:44;;;;;;;24.27;20.05;;;20.70;99.90;;;;;;4987266;28;20203;-77
2022/03/22 12:05:17;;;;;;;26.63;20.30;;;20.90;99.90;;;;;;4989712;28;20211;-77
2022/03/22 12:07:44;;;;;;;24.75;18.85;;;21.00;99.90;;;;;;4984860;28;20216;-78
2022/03/22 12:10:13;;;;;;;25.40;20.02;;;21.10;99.90;;;;;;4970758;28;20212;-78
2022/03/22 12:12:43;;;;;;;28.17;19.48;;;21.00;99.90;;;;;;4969957;28;20207;-77
2022/03/22 12:15:11;;;;;;;28.92;20.35;;;20.90;99.90;;;;;;4968359;28;20261;-77
2022/03/22 12:17:42;;;;;;;22.05;19.42;;;21.00;99.90;;;;;;4969600;28;20208;-78
2022/03/22 12:20:12;;;;;;;22.50;16.98;;;21.20;99.90;;;;;;4969097;28;20201;-78
2022/03/22 12:22:41;;;;;;;21.42;16.38;;;21.20;99.90;;;;;;4968520;28;20212;-77
2022/03/22 12:25:11;;;;;;;21.55;17.35;;;21.10;99.90;;;;;;4965992;28;20324;-78
2022/03/22 12:27:38;;;;;;;18.98;16.17;;;20.80;99.90;;;;;;4967119;28;20223;-76
2022/03/22 12:30:07;;;;;;;25.80;19.55;;;20.70;99.90;;;;;;4970266;28;20218;-78
2022/03/22 12:32:34;;;;;;;27.35;18.77;;;20.80;99.90;;;;;;4975545;28;20240;-77
2022/03/22 12:35:00;;;;;;;23.38;18.95;;;20.60;99.90;;;;;;4985178;28;20208;-77
2022/03/22 12:37:29;;;;;;;28.48;19.42;;;20.70;99.90;;;;;;4968208;28;20208;-78
2022/03/22 12:39:56;;;;;;;27.38;22.25;;;20.90;99.90;;;;;;4974673;28;20246;-79
2022/03/22 12:42:24;;;;;;;22.88;18.60;;;21.00;99.90;;;;;;4987231;28;20212;-77
2022/03/22 12:44:53;;;;;;;25.58;18.50;;;20.80;99.90;;;;;;4975357;28;20284;-78
2022/03/22 12:47:21;;;;;;;22.67;19.70;;;20.80;99.90;;;;;;4979360;28;20266;-77
2022/03/22 12:49:48;;;;;;;25.15;18.77;;;20.80;99.90;;;;;;4982526;28;20613;-77
2022/03/22 12:52:15;;;;;;;22.92;18.35;;;20.70;99.90;;;;;;4980977;28;20240;-78
2022/03/22 12:54:44;;;;;;;25.30;19.35;;;20.50;99.90;;;;;;4979060;28;20240;-76
2022/03/22 12:57:13;;;;;;;25.15;17.55;;;20.60;99.90;;;;;;4981691;28;20630;-78
2022/03/22 12:59:41;;;;;;;19.55;16.58;;;20.60;99.90;;;;;;4988811;28;20204;-78
2022/03/22 13:02:09;;;;;;;26.42;19.77;;;20.70;99.90;;;;;;4985356;28;20218;-78
2022/03/22 13:04:37;;;;;;;23.88;18.58;;;20.80;99.90;;;;;;4987620;28;20208;-77
2022/03/22 13:07:06;;;;;;;26.27;19.75;;;20.90;99.90;;;;;;4974936;28;20207;-78
2022/03/22 13:12:21;;;;;;;23.95;19.45;;;21.00;99.90;;;;;;4976597;28;20296;-77
2022/03/22 13:15:04;;;;;;;26.55;20.58;;;21.10;99.90;;;;;;4976941;28;20847;-78